Time,TemperatureF,DewpointF,PressureIn,WindDirection,WindDirectionDegrees,WindSpeedMPH,WindSpeedGustMPH,Humidity,HourlyPrecipIn,Conditions,Clouds,dailyrainin,SolarRadiationWatts/m^2,SoftwareType,DateUTC
2013-01-16 00:03:00,43.0,36.0,30.18,North,-999,-999.0,-999.0,76,0.01,,,0.19,0.000000,,2013-01-16 05:03:00,
2013-01-16 00:10:00,43.0,36.0,30.18,North,-999,-999.0,-999.0,75,0.00,,,0.19,0.000000,,2013-01-16 05:10:00,
2013-01-16 00:33:00,43.0,36.0,30.18,North,-999,-999.0,-999.0,75,0.00,,,0.19,0.000000,,2013-01-16 05:33:00,
2013-01-16 00:42:00,43.0,36.0,30.18,North,-999,-999.0,-999.0,75,0.00,,,0.19,0.000000,,2013-01-16 05:42:00,
2013-01-16 00:53:00,43.0,36.0,30.18,North,-999,-999.0,-999.0,75,0.00,,,0.19,0.000000,,2013-01-16 05:53:00,
2013-01-16 01:03:00,43.0,36.0,30.18,North,-999,-999.0,-999.0,75,0.00,,,0.19,0.000000,,2013-01-16 06:03:00,
2013-01-16 01:10:00,43.0,36.0,30.16,North,-999,-999.0,-999.0,75,0.00,,,0.19,0.000000,,2013-01-16 06:10:00,
2013-01-16 01:33:00,43.0,36.0,30.16,North,-999,-999.0,-999.0,75,0.00,,,0.19,0.000000,,2013-01-16 06:33:00,
2013-01-16 01:43:00,43.0,36.0,30.16,North,-999,-999.0,-999.0,75,0.00,,,0.19,0.000000,,2013-01-16 06:43:00,
2013-01-16 01:53:00,43.0,36.0,30.16,North,-999,-999.0,-999.0,75,0.00,,,0.19,0.000000,,2013-01-16 06:53:00,
2013-01-16 02:02:00,43.0,36.0,30.16,North,-999,-999.0,-999.0,75,0.00,,,0.19,0.000000,,2013-01-16 07:02:00,
2013-01-16 02:10:00,43.0,36.0,30.16,North,-999,-999.0,-999.0,75,0.02,,,0.15,0.000000,,2013-01-16 07:10:00,
2013-01-16 02:33:00,43.0,36.0,30.16,North,-999,-999.0,-999.0,75,0.02,,,0.15,0.000000,,2013-01-16 07:33:00,
2013-01-16 02:42:00,43.0,36.0,30.16,North,-999,-999.0,-999.0,75,0.02,,,0.15,0.000000,,2013-01-16 07:42:00,
2013-01-16 02:52:00,43.0,36.0,30.16,North,-999,-999.0,-999.0,75,0.02,,,0.15,0.000000,,2013-01-16 07:52:00,
2013-01-16 03:03:00,43.0,36.0,30.16,North,-999,-999.0,-999.0,75,0.02,,,0.15,0.000000,,2013-01-16 08:03:00,
2013-01-16 03:10:00,43.0,36.0,30.14,North,-999,-999.0,-999.0,75,0.04,,,0.17,0.000000,,2013-01-16 08:10:00,
2013-01-16 03:33:00,43.0,36.0,30.14,North,-999,-999.0,-999.0,75,0.04,,,0.17,0.000000,,2013-01-16 08:33:00,
2013-01-16 03:42:00,43.0,36.0,30.14,North,-999,-999.0,-999.0,75,0.04,,,0.17,0.000000,,2013-01-16 08:42:00,
2013-01-16 03:53:00,43.0,36.0,30.14,North,-999,-999.0,-999.0,75,0.04,,,0.17,0.000000,,2013-01-16 08:53:00,
2013-01-16 04:02:00,43.0,36.0,30.14,North,-999,-999.0,-999.0,75,0.04,,,0.17,0.000000,,2013-01-16 09:02:00,
2013-01-16 04:10:00,42.0,34.0,30.14,North,-999,-999.0,-999.0,74,0.00,,,0.16,0.000000,,2013-01-16 09:10:00,
2013-01-16 04:33:00,42.0,34.0,30.14,North,-999,-999.0,-999.0,74,0.00,,,0.16,0.000000,,2013-01-16 09:33:00,
2013-01-16 04:43:00,42.0,34.0,30.14,North,-999,-999.0,-999.0,74,0.00,,,0.16,0.000000,,2013-01-16 09:43:00,
2013-01-16 04:53:00,42.0,34.0,30.14,North,-999,-999.0,-999.0,74,0.00,,,0.16,0.000000,,2013-01-16 09:53:00,
2013-01-16 05:02:00,42.0,34.0,30.14,North,-999,-999.0,-999.0,74,0.00,,,0.16,0.000000,,2013-01-16 10:02:00,
2013-01-16 05:10:00,42.0,34.0,30.11,North,-999,-999.0,-999.0,74,0.00,,,0.12,0.000000,,2013-01-16 10:10:00,
2013-01-16 05:33:00,42.0,34.0,30.11,North,-999,-999.0,-999.0,74,0.00,,,0.12,0.000000,,2013-01-16 10:33:00,
2013-01-16 05:43:00,42.0,34.0,30.11,North,-999,-999.0,-999.0,74,0.00,,,0.12,0.000000,,2013-01-16 10:43:00,
2013-01-16 05:53:00,42.0,34.0,30.11,North,-999,-999.0,-999.0,74,0.00,,,0.12,0.000000,,2013-01-16 10:53:00,
2013-01-16 06:02:00,42.0,34.0,30.11,North,-999,-999.0,-999.0,74,0.00,,,0.12,0.000000,,2013-01-16 11:02:00,
2013-01-16 06:10:00,43.0,35.0,30.12,North,-999,-999.0,-999.0,73,0.01,,,0.11,0.000000,,2013-01-16 11:10:00,
2013-01-16 06:33:00,43.0,35.0,30.12,North,-999,-999.0,-999.0,73,0.01,,,0.11,0.000000,,2013-01-16 11:33:00,
2013-01-16 06:43:00,43.0,35.0,30.12,North,-999,-999.0,-999.0,73,0.01,,,0.11,0.000000,,2013-01-16 11:43:00,
2013-01-16 06:53:00,43.0,35.0,30.12,North,-999,-999.0,-999.0,73,0.01,,,0.11,0.000000,,2013-01-16 11:53:00,
2013-01-16 07:03:00,43.0,35.0,30.12,North,-999,-999.0,-999.0,73,0.01,,,0.11,0.000000,,2013-01-16 12:03:00,
2013-01-16 07:10:00,42.0,34.0,30.12,North,-999,-999.0,-999.0,73,0.00,,,0.09,0.000000,,2013-01-16 12:10:00,
2013-01-16 07:33:00,42.0,34.0,30.12,North,-999,-999.0,-999.0,73,0.00,,,0.09,0.000000,,2013-01-16 12:33:00,
2013-01-16 07:43:00,42.0,34.0,30.12,North,-999,-999.0,-999.0,73,0.00,,,0.09,0.000000,,2013-01-16 12:43:00,
2013-01-16 07:53:00,42.0,34.0,30.12,North,-999,-999.0,-999.0,73,0.00,,,0.09,0.000000,,2013-01-16 12:53:00,
2013-01-16 08:03:00,42.0,34.0,30.12,North,-999,-999.0,-999.0,73,0.00,,,0.09,0.000000,,2013-01-16 13:03:00,
2013-01-16 08:10:00,42.0,34.0,30.12,North,-999,-999.0,-999.0,74,0.07,,,0.16,0.000000,,2013-01-16 13:10:00,
2013-01-16 08:33:00,42.0,34.0,30.12,North,-999,-999.0,-999.0,74,0.07,,,0.16,0.000000,,2013-01-16 13:33:00,
2013-01-16 08:43:00,42.0,34.0,30.12,North,-999,-999.0,-999.0,74,0.07,,,0.16,0.000000,,2013-01-16 13:43:00,
2013-01-16 08:53:00,42.0,34.0,30.12,North,-999,-999.0,-999.0,74,0.07,,,0.16,0.000000,,2013-01-16 13:53:00,
2013-01-16 09:03:00,42.0,34.0,30.12,North,-999,-999.0,-999.0,74,0.07,,,0.16,0.000000,,2013-01-16 14:03:00,
2013-01-16 09:10:00,43.0,35.0,30.14,North,-999,-999.0,-999.0,73,0.02,,,0.18,31.000000,,2013-01-16 14:10:00,
2013-01-16 09:33:00,43.0,35.0,30.14,North,-999,-999.0,-999.0,73,0.02,,,0.18,31.000000,,2013-01-16 14:33:00,
2013-01-16 09:43:00,43.0,35.0,30.14,North,-999,-999.0,-999.0,73,0.02,,,0.18,31.000000,,2013-01-16 14:43:00,
2013-01-16 09:53:00,43.0,35.0,30.14,North,-999,-999.0,-999.0,73,0.02,,,0.18,31.000000,,2013-01-16 14:53:00,
2013-01-16 10:03:00,43.0,35.0,30.14,North,-999,-999.0,-999.0,73,0.02,,,0.18,31.000000,,2013-01-16 15:03:00,
2013-01-16 10:10:00,45.0,36.0,30.15,North,-999,-999.0,-999.0,71,0.00,,,0.18,43.000000,,2013-01-16 15:10:00,
2013-01-16 10:43:00,45.0,36.0,30.15,North,-999,-999.0,-999.0,71,0.00,,,0.18,43.000000,,2013-01-16 15:43:00,
2013-01-16 10:53:00,45.0,36.0,30.15,North,-999,-999.0,-999.0,71,0.00,,,0.18,43.000000,,2013-01-16 15:53:00,
2013-01-16 11:04:00,45.0,36.0,30.15,North,-999,-999.0,-999.0,71,0.00,,,0.18,43.000000,,2013-01-16 16:04:00,
2013-01-16 11:10:00,44.0,34.0,30.15,North,-999,-999.0,-999.0,68,0.03,,,0.21,52.000000,,2013-01-16 16:10:00,
2013-01-16 11:33:00,44.0,34.0,30.15,North,-999,-999.0,-999.0,68,0.03,,,0.21,52.000000,,2013-01-16 16:33:00,
2013-01-16 11:43:00,44.0,34.0,30.15,North,-999,-999.0,-999.0,68,0.03,,,0.21,52.000000,,2013-01-16 16:43:00,
2013-01-16 11:53:00,44.0,34.0,30.15,North,-999,-999.0,-999.0,68,0.03,,,0.21,52.000000,,2013-01-16 16:53:00,
2013-01-16 12:03:00,44.0,34.0,30.15,North,-999,-999.0,-999.0,68,0.03,,,0.21,52.000000,,2013-01-16 17:03:00,
2013-01-16 12:10:00,45.0,35.0,30.13,North,-999,-999.0,-999.0,68,0.03,,,0.24,75.000000,,2013-01-16 17:10:00,
2013-01-16 12:33:00,45.0,35.0,30.13,North,-999,-999.0,-999.0,68,0.03,,,0.24,75.000000,,2013-01-16 17:33:00,
2013-01-16 12:44:00,45.0,35.0,30.13,North,-999,-999.0,-999.0,68,0.03,,,0.24,75.000000,,2013-01-16 17:44:00,
2013-01-16 12:53:00,45.0,35.0,30.13,North,-999,-999.0,-999.0,68,0.03,,,0.24,75.000000,,2013-01-16 17:53:00,
2013-01-16 13:03:00,45.0,35.0,30.13,North,-999,-999.0,-999.0,68,0.03,,,0.24,75.000000,,2013-01-16 18:03:00,
2013-01-16 13:10:00,47.0,37.0,30.09,North,-999,-999.0,-999.0,68,0.07,,,0.30,106.000000,,2013-01-16 18:10:00,
2013-01-16 13:33:00,47.0,37.0,30.09,North,-999,-999.0,-999.0,68,0.07,,,0.30,106.000000,,2013-01-16 18:33:00,
2013-01-16 13:43:00,47.0,37.0,30.09,North,-999,-999.0,-999.0,68,0.07,,,0.30,106.000000,,2013-01-16 18:43:00,
2013-01-16 13:53:00,47.0,37.0,30.09,North,-999,-999.0,-999.0,68,0.07,,,0.30,106.000000,,2013-01-16 18:53:00,
2013-01-16 14:03:00,47.0,37.0,30.09,North,-999,-999.0,-999.0,68,0.07,,,0.30,106.000000,,2013-01-16 19:03:00,
2013-01-16 14:10:00,48.0,38.0,30.09,North,-999,-999.0,-999.0,69,0.00,,,0.30,114.000000,,2013-01-16 19:10:00,
2013-01-16 14:33:00,48.0,38.0,30.09,North,-999,-999.0,-999.0,69,0.00,,,0.30,114.000000,,2013-01-16 19:33:00,
2013-01-16 14:43:00,48.0,38.0,30.09,North,-999,-999.0,-999.0,69,0.00,,,0.30,114.000000,,2013-01-16 19:43:00,
2013-01-16 14:53:00,48.0,38.0,30.09,North,-999,-999.0,-999.0,69,0.00,,,0.30,114.000000,,2013-01-16 19:53:00,
2013-01-16 15:03:00,48.0,38.0,30.09,North,-999,-999.0,-999.0,69,0.00,,,0.30,114.000000,,2013-01-16 20:03:00,
2013-01-16 15:10:00,48.0,38.0,30.08,North,-999,-999.0,-999.0,69,0.01,,,0.31,131.000000,,2013-01-16 20:10:00,
2013-01-16 15:43:00,48.0,38.0,30.08,North,-999,-999.0,-999.0,69,0.01,,,0.31,131.000000,,2013-01-16 20:43:00,
2013-01-16 15:53:00,48.0,38.0,30.08,North,-999,-999.0,-999.0,69,0.01,,,0.31,131.000000,,2013-01-16 20:53:00,
2013-01-16 16:03:00,48.0,38.0,30.08,North,-999,-999.0,-999.0,69,0.01,,,0.31,131.000000,,2013-01-16 21:03:00,
2013-01-16 16:10:00,49.0,40.0,30.09,North,-999,-999.0,-999.0,72,0.00,,,0.31,98.000000,,2013-01-16 21:10:00,
2013-01-16 16:43:00,49.0,40.0,30.09,North,-999,-999.0,-999.0,72,0.00,,,0.31,98.000000,,2013-01-16 21:43:00,
2013-01-16 16:53:00,49.0,40.0,30.09,North,-999,-999.0,-999.0,72,0.00,,,0.31,98.000000,,2013-01-16 21:53:00,
2013-01-16 17:03:00,49.0,40.0,30.09,North,-999,-999.0,-999.0,72,0.00,,,0.31,98.000000,,2013-01-16 22:03:00,
2013-01-16 17:10:00,50.0,42.0,30.09,North,-999,-999.0,-999.0,73,0.00,,,0.31,41.000000,,2013-01-16 22:10:00,
2013-01-16 17:33:00,50.0,42.0,30.09,North,-999,-999.0,-999.0,73,0.00,,,0.31,41.000000,,2013-01-16 22:33:00,
2013-01-16 17:43:00,50.0,42.0,30.09,North,-999,-999.0,-999.0,73,0.00,,,0.31,41.000000,,2013-01-16 22:43:00,
2013-01-16 17:53:00,50.0,42.0,30.09,North,-999,-999.0,-999.0,73,0.00,,,0.31,41.000000,,2013-01-16 22:53:00,
2013-01-16 18:03:00,50.0,42.0,30.09,North,-999,-999.0,-999.0,73,0.00,,,0.31,41.000000,,2013-01-16 23:03:00,
2013-01-16 18:10:00,48.0,40.0,30.11,North,-999,-999.0,-999.0,73,0.00,,,0.31,4.000000,,2013-01-16 23:10:00,
2013-01-16 18:33:00,48.0,40.0,30.11,North,-999,-999.0,-999.0,73,0.00,,,0.31,4.000000,,2013-01-16 23:33:00,
2013-01-16 18:43:00,48.0,40.0,30.11,North,-999,-999.0,-999.0,73,0.00,,,0.31,4.000000,,2013-01-16 23:43:00,
2013-01-16 18:53:00,48.0,40.0,30.11,North,-999,-999.0,-999.0,73,0.00,,,0.31,4.000000,,2013-01-16 23:53:00,
2013-01-16 19:03:00,48.0,40.0,30.11,North,-999,-999.0,-999.0,73,0.00,,,0.31,4.000000,,2013-01-17 00:03:00,
2013-01-16 19:10:00,48.0,39.0,30.10,North,-999,-999.0,-999.0,71,0.00,,,0.31,0.000000,,2013-01-17 00:10:00,
2013-01-16 19:33:00,48.0,39.0,30.10,North,-999,-999.0,-999.0,71,0.00,,,0.31,0.000000,,2013-01-17 00:33:00,
2013-01-16 19:42:00,48.0,39.0,30.10,North,-999,-999.0,-999.0,71,0.00,,,0.31,0.000000,,2013-01-17 00:42:00,
2013-01-16 19:53:00,48.0,39.0,30.10,North,-999,-999.0,-999.0,71,0.00,,,0.31,0.000000,,2013-01-17 00:53:00,
2013-01-16 20:02:00,48.0,39.0,30.10,North,-999,-999.0,-999.0,71,0.00,,,0.31,0.000000,,2013-01-17 01:02:00,
2013-01-16 20:10:00,50.0,41.0,30.11,North,-999,-999.0,-999.0,72,0.00,,,0.31,0.000000,,2013-01-17 01:10:00,
2013-01-16 20:33:00,50.0,41.0,30.11,North,-999,-999.0,-999.0,72,0.00,,,0.31,0.000000,,2013-01-17 01:33:00,
2013-01-16 20:43:00,50.0,41.0,30.11,North,-999,-999.0,-999.0,72,0.00,,,0.31,0.000000,,2013-01-17 01:43:00,
2013-01-16 20:53:00,50.0,41.0,30.11,North,-999,-999.0,-999.0,72,0.00,,,0.31,0.000000,,2013-01-17 01:53:00,
2013-01-16 21:02:00,50.0,41.0,30.11,North,-999,-999.0,-999.0,72,0.00,,,0.31,0.000000,,2013-01-17 02:02:00,
2013-01-16 21:10:00,50.0,41.0,30.10,North,-999,-999.0,-999.0,72,0.00,,,0.31,0.000000,,2013-01-17 02:10:00,
2013-01-16 21:32:00,50.0,41.0,30.10,North,-999,-999.0,-999.0,72,0.00,,,0.31,0.000000,,2013-01-17 02:32:00,
2013-01-16 21:43:00,50.0,41.0,30.10,North,-999,-999.0,-999.0,72,0.00,,,0.31,0.000000,,2013-01-17 02:43:00,
2013-01-16 21:52:00,50.0,41.0,30.10,North,-999,-999.0,-999.0,72,0.00,,,0.31,0.000000,,2013-01-17 02:52:00,
2013-01-16 22:03:00,50.0,41.0,30.10,North,-999,-999.0,-999.0,72,0.00,,,0.31,0.000000,,2013-01-17 03:03:00,
2013-01-16 22:10:00,50.0,42.0,30.09,North,-999,-999.0,-999.0,74,0.00,,,0.31,0.000000,,2013-01-17 03:10:00,
2013-01-16 22:33:00,50.0,42.0,30.09,North,-999,-999.0,-999.0,74,0.00,,,0.31,0.000000,,2013-01-17 03:33:00,
2013-01-16 22:43:00,50.0,42.0,30.09,North,-999,-999.0,-999.0,74,0.00,,,0.31,0.000000,,2013-01-17 03:43:00,
2013-01-16 22:53:00,50.0,42.0,30.09,North,-999,-999.0,-999.0,74,0.00,,,0.31,0.000000,,2013-01-17 03:53:00,
2013-01-16 23:02:00,50.0,42.0,30.09,North,-999,-999.0,-999.0,74,0.00,,,0.31,0.000000,,2013-01-17 04:02:00,
2013-01-16 23:10:00,49.0,41.0,30.09,North,-999,-999.0,-999.0,75,0.00,,,0.30,0.000000,,2013-01-17 04:10:00,
2013-01-16 23:33:00,49.0,41.0,30.09,North,-999,-999.0,-999.0,75,0.00,,,0.30,0.000000,,2013-01-17 04:33:00,
2013-01-16 23:43:00,49.0,41.0,30.09,North,-999,-999.0,-999.0,75,0.00,,,0.30,0.000000,,2013-01-17 04:43:00,
2013-01-16 23:53:00,49.0,41.0,30.09,North,-999,-999.0,-999.0,75,0.00,,,0.30,0.000000,,2013-01-17 04:53:00,